Time;durP1;ratioP1;P1;durP2;ratioP2;P2;SDS_P1;SDS_P2;PMS_P1;PMS_P2;Temp;Humidity;BMP_temperature;BMP_pressure;BME280_temperature;BME280_humidity;BME280_pressure;Samples;Min_cycle;Max_cycle;Signal;HPM_P1;HPM_P2
2023/01/25 00:01:23;;;;;;;68.03;47.37;;;;;;;-0.67;100.00;103572.53;5053268;28;20457;-63
2023/01/25 00:03:48;;;;;;;69.17;47.77;;;;;;;-0.68;100.00;103568.13;5057464;28;20033;-64
2023/01/25 00:06:13;;;;;;;68.47;47.53;;;;;;;-0.68;100.00;103564.66;5058038;28;20295;-64
2023/01/25 00:08:39;;;;;;;68.03;47.20;;;;;;;-0.67;100.00;103563.97;5050857;28;20040;-64
2023/01/25 00:11:04;;;;;;;69.50;48.23;;;;;;;-0.67;100.00;103563.97;5058679;28;20021;-63
2023/01/25 00:13:29;;;;;;;73.10;49.87;;;;;;;-0.70;100.00;103563.59;5056027;28;20052;-64
2023/01/25 00:16:02;;;;;;;71.93;49.57;;;;;;;-0.71;100.00;103564.31;5051590;28;20176;-64
2023/01/25 00:18:28;;;;;;;75.90;50.63;;;;;;;-0.71;100.00;103561.75;5049202;28;20434;-64
2023/01/25 00:20:53;;;;;;;76.10;52.87;;;;;;;-0.70;100.00;103566.16;5047068;28;20099;-63
2023/01/25 00:23:18;;;;;;;74.50;49.97;;;;;;;-0.71;100.00;103559.22;5046076;28;20068;-64
2023/01/25 00:25:43;;;;;;;75.17;50.70;;;;;;;-0.70;100.00;103564.47;5058004;28;20025;-64
2023/01/25 00:28:09;;;;;;;75.97;49.70;;;;;;;-0.69;100.00;103562.84;5047917;28;20031;-64
2023/01/25 00:30:34;;;;;;;75.93;51.00;;;;;;;-0.70;100.00;103558.50;5054144;28;20025;-64
2023/01/25 00:33:33;;;;;;;76.63;50.97;;;;;;;-0.73;100.00;103559.94;5046379;28;20438;-64
2023/01/25 00:36:00;;;;;;;80.43;53.47;;;;;;;-0.71;100.00;103574.50;5045864;28;20351;-64
2023/01/25 00:38:32;;;;;;;79.93;53.73;;;;;;;-0.76;100.00;103559.59;5046583;28;20466;-64
2023/01/25 00:40:57;;;;;;;76.23;51.43;;;;;;;-0.80;100.00;103557.38;5046245;28;20432;-64
2023/01/25 00:43:23;;;;;;;81.97;54.17;;;;;;;-0.80;100.00;103554.81;5057556;28;20032;-64
2023/01/25 00:45:48;;;;;;;79.50;51.93;;;;;;;-0.82;100.00;103548.63;5049348;28;20033;-64
2023/01/25 00:48:13;;;;;;;76.23;51.53;;;;;;;-0.85;100.00;103554.25;5057665;28;20017;-63
2023/01/25 00:50:38;;;;;;;79.07;51.67;;;;;;;-0.90;100.00;103549.34;5057361;28;20486;-64
2023/01/25 00:53:04;;;;;;;76.03;49.73;;;;;;;-0.90;100.00;103559.53;5049323;28;20094;-64
2023/01/25 00:55:29;;;;;;;75.93;49.93;;;;;;;-0.89;100.00;103556.25;5055173;28;20029;-64
2023/01/25 00:57:54;;;;;;;78.23;53.60;;;;;;;-0.90;100.00;103550.22;5049088;28;20111;-64
2023/01/25 01:00:20;;;;;;;81.93;52.00;;;;;;;-0.89;100.00;103558.78;5055068;28;20024;-64
2023/01/25 01:02:45;;;;;;;81.73;52.83;;;;;;;-0.89;100.00;103552.06;5050415;28;20028;-64
2023/01/25 01:05:10;;;;;;;80.77;52.83;;;;;;;-0.89;100.00;103551.16;5050324;28;20036;-64
2023/01/25 01:07:36;;;;;;;78.90;52.17;;;;;;;-0.89;100.00;103544.44;5049578;28;20071;-64
2023/01/25 01:10:02;;;;;;;78.27;52.27;;;;;;;-0.89;100.00;103533.31;5051071;28;20040;-64
2023/01/25 01:12:27;;;;;;;86.50;55.40;;;;;;;-0.88;100.00;103537.72;5048931;28;20435;-64
2023/01/25 01:14:52;;;;;;;85.67;54.43;;;;;;;-0.88;100.00;103537.72;5064077;28;20021;-64
2023/01/25 01:17:18;;;;;;;83.67;54.23;;;;;;;-0.86;100.00;103541.31;5066664;28;20028;-64
2023/01/25 01:19:43;;;;;;;84.77;55.20;;;;;;;-0.86;100.00;103532.06;5053605;28;20029;-64
2023/01/25 01:22:08;;;;;;;87.67;54.37;;;;;;;-0.85;100.00;103538.06;5051219;28;20031;-64
2023/01/25 01:24:33;;;;;;;84.47;54.47;;;;;;;-0.87;100.00;103539.50;5048214;28;20067;-64
2023/01/25 01:26:59;;;;;;;90.20;57.43;;;;;;;-0.86;100.00;103539.69;5064195;28;20283;-64
2023/01/25 01:29:24;;;;;;;86.47;55.17;;;;;;;-0.87;100.00;103537.88;5051063;28;20029;-64
2023/01/25 01:31:51;;;;;;;86.77;53.43;;;;;;;-0.86;100.00;103536.22;5050187;28;20051;-64
2023/01/25 01:34:17;;;;;;;84.47;53.80;;;;;;;-0.85;100.00;103538.06;5049002;28;20029;-64
2023/01/25 01:36:43;;;;;;;88.87;55.00;;;;;;;-0.83;100.00;103544.28;5049333;28;20036;-64
2023/01/25 01:39:09;;;;;;;79.13;51.83;;;;;;;-0.82;100.00;103532.44;5055551;28;20389;-64
2023/01/25 01:41:36;;;;;;;79.67;52.50;;;;;;;-0.83;100.00;103531.53;5048492;28;20021;-63
2023/01/25 01:44:01;;;;;;;87.47;55.00;;;;;;;-0.83;100.00;103536.63;5048148;28;20124;-64
2023/01/25 01:46:36;;;;;;;90.17;56.17;;;;;;;-0.83;100.00;103544.28;5048305;28;20108;-64
2023/01/25 01:49:15;;;;;;;93.50;56.17;;;;;;;-0.88;100.00;103540.25;5048078;28;20040;-64
2023/01/25 01:51:43;;;;;;;92.43;57.20;;;;;;;-0.88;100.00;103540.25;5048424;28;20060;-64
2023/01/25 01:54:24;;;;;;;90.60;57.37;;;;;;;-0.90;100.00;103541.69;5046627;28;20083;-64
2023/01/25 01:57:11;;;;;;;92.20;55.92;;;;;;;-0.90;100.00;103541.69;5052166;28;20029;-64
2023/01/25 01:59:43;;;;;;;88.30;54.00;;;;;;;-0.90;100.00;103537.50;5048377;28;20064;-64
2023/01/25 02:02:09;;;;;;;86.53;53.87;;;;;;;-0.89;100.00;103540.97;5060063;28;20048;-64
2023/01/25 02:04:35;;;;;;;87.47;54.30;;;;;;;-0.89;100.00;103541.88;5049758;28;20033;-63
2023/01/25 02:07:14;;;;;;;89.17;54.53;;;;;;;-0.89;100.00;103540.97;5047431;28;20021;-64
2023/01/25 02:09:39;;;;;;;85.07;53.53;;;;;;;-0.89;100.00;103540.97;5058105;28;20115;-64
2023/01/25 02:12:06;;;;;;;82.07;52.60;;;;;;;-0.88;100.00;103540.25;5050751;28;20119;-64
2023/01/25 02:14:33;;;;;;;82.67;52.87;;;;;;;-0.88;100.00;103537.72;5049582;28;20029;-64
2023/01/25 02:16:59;;;;;;;86.10;51.63;;;;;;;-0.88;100.00;103537.72;5049213;28;20051;-64
2023/01/25 02:19:36;;;;;;;85.70;53.90;;;;;;;-0.87;100.00;103536.97;5052315;28;20036;-64
2023/01/25 02:22:09;;;;;;;86.90;53.03;;;;;;;-0.86;100.00;103536.22;5048030;28;20423;-64
2023/01/25 02:24:37;;;;;;;91.77;56.17;;;;;;;-0.88;100.00;103532.63;5046360;28;20024;-64
2023/01/25 02:27:03;;;;;;;88.77;56.30;;;;;;;-0.89;100.00;103535.88;5047394;28;20120;-64
2023/01/25 02:29:28;;;;;;;91.53;57.77;;;;;;;-0.90;100.00;103526.41;5048058;28;20115;-64
2023/01/25 02:32:05;;;;;;;91.60;57.77;;;;;;;-0.92;100.00;103517.69;5048209;28;20135;-64
2023/01/25 02:34:30;;;;;;;90.47;57.00;;;;;;;-0.92;100.00;103517.69;5047959;28;20066;-64
2023/01/25 02:36:56;;;;;;;87.50;55.00;;;;;;;-0.91;100.00;103516.94;5048601;28;20583;-63
2023/01/25 02:39:25;;;;;;;87.90;56.60;;;;;;;-0.91;100.00;103516.94;5048724;28;20029;-64
2023/01/25 02:41:51;;;;;;;90.13;56.70;;;;;;;-0.90;100.00;103508.59;5051118;28;20037;-64
2023/01/25 02:44:24;;;;;;;91.73;55.43;;;;;;;-0.90;100.00;103511.13;5047652;28;20484;-64
2023/01/25 02:46:49;;;;;;;90.77;56.07;;;;;;;-0.90;100.00;103503.50;5052626;28;20035;-64
2023/01/25 02:49:16;;;;;;;89.00;54.70;;;;;;;-0.88;100.00;103507.16;5056235;28;20624;-64
2023/01/25 02:51:44;;;;;;;88.40;55.70;;;;;;;-0.88;100.00;103502.06;5066630;28;20033;-64
2023/01/25 02:54:11;;;;;;;89.47;56.17;;;;;;;-0.87;100.00;103503.88;5062925;28;20036;-64
2023/01/25 02:56:37;;;;;;;87.87;54.90;;;;;;;-0.89;100.00;103497.66;5061979;28;20100;-64
2023/01/25 02:59:04;;;;;;;89.93;55.47;;;;;;;-0.90;100.00;103503.50;5064561;28;20062;-64
2023/01/25 03:01:31;;;;;;;94.63;58.00;;;;;;;-0.97;100.00;103492.56;5054832;28;20029;-64
2023/01/25 03:03:57;;;;;;;95.43;58.27;;;;;;;-0.98;100.00;103497.47;5060386;28;20540;-64
2023/01/25 03:06:22;;;;;;;96.30;59.30;;;;;;;-0.99;100.00;103503.28;5060213;28;20123;-64
2023/01/25 03:08:48;;;;;;;92.13;56.47;;;;;;;-1.01;100.00;103503.06;5064367;28;20027;-63
2023/01/25 03:11:14;;;;;;;91.80;55.80;;;;;;;-1.02;100.00;103497.81;5060691;28;20025;-64
2023/01/25 03:13:39;;;;;;;96.57;57.47;;;;;;;-1.03;100.00;103496.91;5055263;28;20056;-64
2023/01/25 03:16:08;;;;;;;92.13;56.13;;;;;;;-1.02;100.00;103495.25;5051327;28;20017;-64
2023/01/25 03:18:34;;;;;;;100.77;57.80;;;;;;;-1.02;100.00;103480.91;5046221;28;20029;-64
2023/01/25 03:21:12;;;;;;;94.10;57.90;;;;;;;-1.03;100.00;103476.56;5046751;28;20029;-64
2023/01/25 03:23:38;;;;;;;95.37;58.53;;;;;;;-1.03;100.00;103485.81;5048058;28;20473;-64
2023/01/25 03:26:13;;;;;;;95.17;58.23;;;;;;;-1.04;100.00;103479.78;5049696;28;20024;-64
2023/01/25 03:28:39;;;;;;;92.37;56.60;;;;;;;-1.02;100.00;103482.53;5047657;28;20051;-64
2023/01/25 03:31:06;;;;;;;94.20;56.97;;;;;;;-1.02;100.00;103473.25;5048593;28;20499;-64
2023/01/25 03:33:31;;;;;;;97.10;58.13;;;;;;;-1.01;100.00;103469.09;5046955;28;20106;-64
2023/01/25 03:35:57;;;;;;;97.27;57.97;;;;;;;-1.10;100.00;103468.88;5048863;28;20029;-64
2023/01/25 03:38:22;;;;;;;100.87;59.00;;;;;;;-1.14;100.00;103459.03;5047252;28;20021;-64
2023/01/25 03:40:48;;;;;;;95.13;58.23;;;;;;;-1.16;100.00;103458.84;5047277;28;20435;-64
2023/01/25 03:43:13;;;;;;;94.17;56.53;;;;;;;-1.15;100.00;103454.69;5047855;28;20037;-64
2023/01/25 03:45:38;;;;;;;94.60;57.27;;;;;;;-1.14;100.00;103456.50;5047415;28;20033;-64
2023/01/25 03:48:04;;;;;;;101.53;60.67;;;;;;;-1.12;100.00;103460.16;5046773;28;20037;-64
2023/01/25 03:50:29;;;;;;;98.13;58.07;;;;;;;-1.12;100.00;103462.69;5046311;28;20040;-64
2023/01/25 03:53:00;;;;;;;99.10;58.13;;;;;;;-1.12;100.00;103460.16;5045313;28;20033;-64
2023/01/25 03:55:26;;;;;;;;;;;;;;;-1.11;100.00;103459.41;5045715;28;20469;-64
2023/01/25 03:57:51;;;;;;;98.60;57.07;;;;;;;-1.13;100.00;103455.75;5044384;28;19965;-64
2023/01/25 04:00:18;;;;;;;102.00;60.03;;;;;;;-1.13;100.00;103463.41;5043725;28;20191;-64
2023/01/25 04:02:44;;;;;;;98.90;58.70;;;;;;;-1.12;100.00;103457.59;5059568;28;20031;-64
2023/01/25 04:05:10;;;;;;;104.60;59.67;;;;;;;-1.10;100.00;103458.69;5056173;28;20052;-64
2023/01/25 04:07:35;;;;;;;96.63;57.63;;;;;;;-1.11;100.00;103467.03;5045909;28;20485;-64
2023/01/25 04:10:00;;;;;;;101.77;59.87;;;;;;;-1.12;100.00;103455.06;5045999;28;20048;-63
2023/01/25 04:12:26;;;;;;;93.50;56.10;;;;;;;-1.17;100.00;103459.56;5050970;28;20434;-64
2023/01/25 04:14:51;;;;;;;99.47;60.83;;;;;;;-1.19;100.00;103452.47;5050658;28;20097;-64
2023/01/25 04:17:16;;;;;;;99.67;58.77;;;;;;;-1.19;100.00;103452.47;5047134;28;20104;-64
2023/01/25 04:19:41;;;;;;;99.53;57.50;;;;;;;-1.17;100.00;103445.94;5049764;28;20421;-64
2023/01/25 04:22:07;;;;;;;101.03;60.83;;;;;;;-1.16;100.00;103448.69;5049972;28;20170;-64
2023/01/25 04:24:33;;;;;;;101.50;60.57;;;;;;;-1.15;100.00;103439.41;5050561;28;20033;-64
2023/01/25 04:26:58;;;;;;;104.20;60.80;;;;;;;-1.15;100.00;103445.41;5050422;28;20047;-64
2023/01/25 04:29:23;;;;;;;101.63;58.17;;;;;;;-1.16;100.00;103448.69;5049698;28;20033;-63
2023/01/25 04:31:48;;;;;;;96.77;57.53;;;;;;;-1.18;100.00;103444.09;5051316;28;20037;-64
2023/01/25 04:34:14;;;;;;;94.03;55.80;;;;;;;-1.20;100.00;103441.38;5049767;28;20033;-64
2023/01/25 04:36:39;;;;;;;96.27;57.10;;;;;;;-1.24;100.00;103444.28;5060692;28;20040;-64
2023/01/25 04:39:04;;;;;;;97.23;57.37;;;;;;;-1.29;100.00;103441.16;5051552;28;20770;-64
2023/01/25 04:41:29;;;;;;;99.37;57.80;;;;;;;-1.32;100.00;103435.72;5049674;28;20040;-63
2023/01/25 04:43:55;;;;;;;98.77;57.03;;;;;;;-1.33;100.00;103436.41;5051860;28;20224;-64
2023/01/25 04:46:20;;;;;;;98.30;55.70;;;;;;;-1.34;100.00;103442.25;5049076;28;20035;-63
2023/01/25 04:48:46;;;;;;;97.37;57.20;;;;;;;-1.35;100.00;103435.34;5054989;28;20022;-64
2023/01/25 04:51:13;;;;;;;98.87;56.17;;;;;;;-1.36;100.00;103430.97;5050176;28;20045;-64
2023/01/25 04:53:38;;;;;;;97.43;57.97;;;;;;;-1.40;100.00;103436.41;5049720;28;20045;-63
2023/01/25 04:56:04;;;;;;;98.37;57.47;;;;;;;-1.42;100.00;103432.78;5049900;28;20029;-63
2023/01/25 04:58:29;;;;;;;98.80;57.17;;;;;;;-1.42;100.00;103427.69;5048692;28;20041;-64
2023/01/25 05:01:00;;;;;;;98.77;56.50;;;;;;;-1.42;100.00;103428.56;5057093;28;20040;-63
2023/01/25 05:03:25;;;;;;;101.68;57.67;;;;;;;-1.39;100.00;103423.88;5062368;28;20043;-64
2023/01/25 05:05:50;;;;;;;100.40;59.63;;;;;;;-1.39;100.00;103422.97;5049619;28;20024;-64
2023/01/25 05:08:16;;;;;;;97.60;56.10;;;;;;;-1.38;100.00;103415.50;5049877;28;20485;-64
2023/01/25 05:10:41;;;;;;;95.60;54.13;;;;;;;-1.36;100.00;103418.25;5048681;28;20021;-64
2023/01/25 05:13:06;;;;;;;89.90;53.87;;;;;;;-1.36;100.00;103414.06;5052483;28;20021;-64
2023/01/25 05:15:31;;;;;;;91.97;54.43;;;;;;;-1.36;100.00;103414.06;5051631;28;20040;-63
2023/01/25 05:17:57;;;;;;;90.53;53.17;;;;;;;-1.40;100.00;103410.97;5055386;28;20021;-64
2023/01/25 05:20:22;;;;;;;85.47;51.60;;;;;;;-1.40;100.00;103418.63;5060528;28;20488;-64
2023/01/25 05:22:47;;;;;;;84.20;51.00;;;;;;;-1.41;100.00;103422.78;5048457;28;20029;-63
2023/01/25 05:27:56;;;;;;;83.37;50.07;;;;;;;-1.47;100.00;103416.94;5047687;28;20218;-63
2023/01/25 05:30:21;;;;;;;82.23;49.97;;;;;;;-1.48;100.00;103418.59;5046677;28;20552;-64
2023/01/25 05:32:48;;;;;;;85.00;51.07;;;;;;;-1.47;100.00;103410.22;5049374;28;20028;-64
2023/01/25 05:35:14;;;;;;;78.60;47.13;;;;;;;-1.47;100.00;103400.03;5048608;28;20461;-64
2023/01/25 05:37:40;;;;;;;78.83;48.90;;;;;;;-1.46;100.00;103406.94;5051304;28;20029;-64
2023/01/25 05:40:06;;;;;;;82.37;50.77;;;;;;;-1.43;100.00;103410.56;5049652;28;20021;-64
2023/01/25 05:42:31;;;;;;;79.93;49.27;;;;;;;-1.42;100.00;103408.22;5048846;28;20024;-63
2023/01/25 05:44:56;;;;;;;75.53;46.90;;;;;;;-1.41;100.00;103409.13;5048185;28;20028;-63
2023/01/25 05:47:22;;;;;;;80.50;49.33;;;;;;;-1.40;100.00;103405.88;5064786;28;20033;-64
2023/01/25 05:49:47;;;;;;;80.80;49.27;;;;;;;-1.40;100.00;103400.81;5053347;28;20447;-63
2023/01/25 05:52:14;;;;;;;79.27;49.67;;;;;;;-1.39;100.00;103407.69;5063727;28;20052;-63
2023/01/25 05:54:39;;;;;;;85.00;49.23;;;;;;;-1.41;100.00;103399.88;5054949;28;20025;-63
2023/01/25 05:57:04;;;;;;;83.97;48.03;;;;;;;-1.40;100.00;103406.78;5047610;28;20405;-63
2023/01/25 05:59:30;;;;;;;81.70;50.33;;;;;;;-1.46;100.00;103401.84;5048697;28;20112;-63
2023/01/25 06:01:55;;;;;;;79.20;47.83;;;;;;;-1.51;100.00;103397.81;5048415;28;20560;-63
2023/01/25 06:04:20;;;;;;;82.63;49.77;;;;;;;-1.55;100.00;103410.91;5049487;28;20255;-63
2023/01/25 06:06:45;;;;;;;81.10;48.23;;;;;;;-1.61;100.00;103405.06;5049628;28;20028;-64
2023/01/25 06:09:12;;;;;;;78.73;49.33;;;;;;;-1.63;100.00;103399.78;5048483;28;20056;-63
2023/01/25 06:11:37;;;;;;;80.27;49.40;;;;;;;-1.63;100.00;103403.97;5047929;28;20037;-63
2023/01/25 06:14:03;;;;;;;78.57;48.47;;;;;;;-1.71;100.00;103398.84;5056523;28;20190;-64
2023/01/25 06:16:28;;;;;;;79.20;48.57;;;;;;;-1.73;100.00;103405.38;5054093;28;20439;-63
2023/01/25 06:18:53;;;;;;;77.93;47.70;;;;;;;-1.75;100.00;103405.91;5048784;28;20048;-64
2023/01/25 06:21:19;;;;;;;79.90;47.43;;;;;;;-1.75;100.00;103411.91;5050159;28;20123;-64
2023/01/25 06:23:44;;;;;;;76.60;47.23;;;;;;;-1.73;100.00;103407.94;5048031;28;20032;-63
2023/01/25 06:26:13;;;;;;;77.80;48.03;;;;;;;-1.72;100.00;103402.13;5048787;28;20060;-64
2023/01/25 06:28:38;;;;;;;80.27;47.53;;;;;;;-1.71;100.00;103398.84;5048373;28;20029;-64
2023/01/25 06:31:05;;;;;;;76.63;46.93;;;;;;;-1.72;100.00;103398.66;5055836;28;20442;-64
2023/01/25 06:33:31;;;;;;;76.37;46.60;;;;;;;-1.75;100.00;103406.81;5067647;28;20135;-64
2023/01/25 06:36:22;;;;;;;78.80;48.50;;;;;;;-1.73;100.00;103395.22;5066331;28;20020;-63
2023/01/25 06:38:49;;;;;;;78.13;46.60;;;;;;;-1.69;100.00;103397.41;5059568;28;20049;-64
2023/01/25 06:41:15;;;;;;;79.17;46.93;;;;;;;-1.67;100.00;103396.69;5067658;28;20028;-64
2023/01/25 06:43:40;;;;;;;77.67;47.27;;;;;;;-1.67;100.00;103404.31;5067550;28;20036;-64
2023/01/25 06:46:08;;;;;;;75.17;46.87;;;;;;;-1.68;100.00;103400.84;5050640;28;20063;-64
2023/01/25 06:48:33;;;;;;;77.40;47.00;;;;;;;-1.67;100.00;103395.03;5048357;28;20227;-64
2023/01/25 06:51:01;;;;;;;79.93;48.20;;;;;;;-1.63;100.00;103396.31;5051496;28;20037;-64
2023/01/25 06:53:29;;;;;;;78.97;46.80;;;;;;;-1.61;100.00;103395.81;5056555;28;20376;-64
2023/01/25 06:56:05;;;;;;;77.27;48.07;;;;;;;-1.59;100.00;103393.44;5047839;28;20021;-64
2023/01/25 06:58:31;;;;;;;78.53;47.37;;;;;;;-1.60;100.00;103396.72;5048098;28;20021;-64
2023/01/25 07:01:11;;;;;;;77.63;45.47;;;;;;;-1.59;100.00;103393.44;5048476;28;20025;-64
2023/01/25 07:03:37;;;;;;;72.67;45.93;;;;;;;-1.58;100.00;103392.72;5051294;28;20048;-64
2023/01/25 07:06:06;;;;;;;78.97;47.37;;;;;;;-1.58;100.00;103387.63;5064947;28;20467;-64
2023/01/25 07:08:33;;;;;;;75.33;46.27;;;;;;;-1.55;100.00;103388.03;5049192;28;20043;-63
2023/01/25 07:11:00;;;;;;;78.27;47.70;;;;;;;-1.55;100.00;103388.03;5046023;28;20485;-64
2023/01/25 07:13:27;;;;;;;75.07;47.33;;;;;;;-1.55;100.00;103385.47;5046568;28;20029;-63
2023/01/25 07:15:54;;;;;;;78.10;47.20;;;;;;;-1.55;100.00;103390.56;5053071;28;20567;-64
2023/01/25 07:18:19;;;;;;;85.70;49.60;;;;;;;-1.55;100.00;103395.66;5048551;28;20072;-64
2023/01/25 07:20:44;;;;;;;84.63;48.50;;;;;;;-1.53;100.00;103391.63;5046247;28;20418;-64
2023/01/25 07:23:09;;;;;;;74.87;47.00;;;;;;;-1.52;100.00;103395.09;5046088;28;20044;-63
2023/01/25 07:25:35;;;;;;;76.13;48.23;;;;;;;-1.50;100.00;103402.22;5046273;28;20029;-64
2023/01/25 07:28:00;;;;;;;78.33;48.17;;;;;;;-1.48;100.00;103393.16;5047168;28;20059;-64
2023/01/25 07:30:25;;;;;;;81.63;48.67;;;;;;;-1.47;100.00;103388.94;5044351;28;20598;-63
2023/01/25 07:32:50;;;;;;;76.07;47.47;;;;;;;-1.46;100.00;103389.13;5045405;28;20054;-63
2023/01/25 07:35:16;;;;;;;82.73;48.10;;;;;;;-1.43;100.00;103385.13;5045669;28;20104;-64
2023/01/25 07:37:41;;;;;;;83.03;48.83;;;;;;;-1.43;100.00;103380.03;5045423;28;20041;-64
2023/01/25 07:40:07;;;;;;;81.20;48.30;;;;;;;-1.42;100.00;103387.88;5044674;28;20501;-64
2023/01/25 07:42:32;;;;;;;77.67;45.97;;;;;;;-1.47;100.00;103379.69;5043958;28;20029;-63
2023/01/25 07:44:58;;;;;;;80.53;48.30;;;;;;;-1.50;100.00;103369.16;5045189;28;20025;-63
2023/01/25 07:47:23;;;;;;;78.77;48.70;;;;;;;-1.54;100.00;103368.56;5044726;28;20420;-63
2023/01/25 07:49:49;;;;;;;85.17;52.43;;;;;;;-1.58;100.00;103374.91;5045195;28;20051;-63
2023/01/25 07:52:14;;;;;;;81.93;48.53;;;;;;;-1.63;100.00;103378.53;5056804;28;20052;-64
2023/01/25 07:54:39;;;;;;;81.13;48.53;;;;;;;-1.66;100.00;103375.59;5051391;28;20284;-64
2023/01/25 07:57:05;;;;;;;84.30;49.43;;;;;;;-1.69;100.00;103377.06;5049255;28;20025;-64
2023/01/25 07:59:30;;;;;;;82.27;49.97;;;;;;;-1.67;100.00;103378.88;5050849;28;20032;-63
2023/01/25 08:01:56;;;;;;;81.07;48.27;;;;;;;-1.66;100.00;103375.59;5050674;28;20103;-64
2023/01/25 08:04:21;;;;;;;82.13;51.07;;;;;;;-1.64;100.00;103379.25;5062163;28;20020;-64
2023/01/25 08:06:46;;;;;;;84.20;48.50;;;;;;;-1.67;100.00;103381.44;5054122;28;20393;-64
2023/01/25 08:09:18;;;;;;;86.90;49.60;;;;;;;-1.73;100.00;103379.03;5050832;28;20025;-64
2023/01/25 08:11:44;;;;;;;78.07;46.57;;;;;;;-1.74;100.00;103373.03;5050291;28;20441;-64
2023/01/25 08:14:10;;;;;;;87.57;50.10;;;;;;;-1.77;100.00;103367.56;5051167;28;20033;-63
2023/01/25 08:16:35;;;;;;;89.07;51.10;;;;;;;-1.79;100.00;103376.66;5050607;28;20017;-63
2023/01/25 08:19:02;;;;;;;86.53;50.63;;;;;;;-1.81;100.00;103370.47;5051137;28;20055;-64
2023/01/25 08:21:31;;;;;;;85.00;47.80;;;;;;;-1.81;100.00;103366.28;5050373;28;20017;-63
2023/01/25 08:23:57;;;;;;;81.53;47.93;;;;;;;-1.79;100.00;103369.03;5056715;28;20488;-63
2023/01/25 08:26:23;;;;;;;87.57;48.90;;;;;;;-1.76;100.00;103368.50;5055820;28;20055;-64
2023/01/25 08:28:48;;;;;;;87.30;50.83;;;;;;;-1.74;100.00;103362.88;5050075;28;20040;-64
2023/01/25 08:31:19;;;;;;;84.17;48.83;;;;;;;-1.73;100.00;103363.78;5050071;28;20028;-64
2023/01/25 08:33:45;;;;;;;87.85;49.20;;;;;;;-1.70;100.00;103359.06;5051022;28;20020;-63
2023/01/25 08:36:12;;;;;;;86.70;50.00;;;;;;;-1.67;100.00;103361.09;5050086;28;20024;-63
2023/01/25 08:38:38;;;;;;;84.40;49.07;;;;;;;-1.66;100.00;103355.25;5049545;28;20500;-63
2023/01/25 08:41:15;;;;;;;84.63;49.63;;;;;;;-1.62;100.00;103355.81;5049952;28;20016;-63
2023/01/25 08:43:41;;;;;;;87.73;50.10;;;;;;;-1.60;100.00;103349.28;5050523;28;20371;-63
2023/01/25 08:46:07;;;;;;;82.87;48.27;;;;;;;-1.57;100.00;103356.41;5049561;28;20029;-64
2023/01/25 08:48:32;;;;;;;85.27;49.17;;;;;;;-1.54;100.00;103359.31;5050854;28;20267;-63
2023/01/25 08:50:58;;;;;;;80.87;47.70;;;;;;;-1.55;100.00;103365.13;5052678;28;20135;-63
2023/01/25 08:53:26;;;;;;;80.80;48.60;;;;;;;-1.59;100.00;103362.94;5052983;28;20107;-63
2023/01/25 08:55:51;;;;;;;83.97;48.30;;;;;;;-1.60;100.00;103361.13;5049504;28;20446;-64
2023/01/25 08:58:18;;;;;;;84.10;48.17;;;;;;;-1.61;100.00;103360.19;5049249;28;20127;-64
2023/01/25 09:00:44;;;;;;;86.07;49.97;;;;;;;-1.60;100.00;103353.50;5049934;28;20028;-64
2023/01/25 09:03:10;;;;;;;81.27;46.67;;;;;;;-1.62;100.00;103347.28;5049324;28;20036;-64
2023/01/25 09:05:37;;;;;;;83.10;49.00;;;;;;;-1.59;100.00;103352.75;5052863;28;20447;-63
2023/01/25 09:08:04;;;;;;;88.57;49.23;;;;;;;-1.57;100.00;103346.22;5049762;28;20039;-63
2023/01/25 09:10:30;;;;;;;81.47;48.73;;;;;;;-1.61;100.00;103333.84;5049671;28;20024;-63
2023/01/25 09:12:55;;;;;;;82.53;48.43;;;;;;;-1.67;100.00;103336.53;5051123;28;20091;-64
2023/01/25 09:15:21;;;;;;;88.13;48.97;;;;;;;-1.67;100.00;103338.19;5050013;28;20104;-64
2023/01/25 09:17:49;;;;;;;85.20;50.33;;;;;;;-1.66;100.00;103329.84;5048979;28;20343;-63
2023/01/25 09:20:16;;;;;;;88.10;49.87;;;;;;;-1.62;100.00;103334.59;5049469;28;20363;-64
2023/01/25 09:22:41;;;;;;;86.93;49.93;;;;;;;-1.58;100.00;103330.03;5049376;28;20025;-63
2023/01/25 09:25:06;;;;;;;85.73;48.53;;;;;;;-1.54;100.00;103338.03;5059008;28;20662;-63
2023/01/25 09:27:32;;;;;;;82.33;49.30;;;;;;;-1.51;100.00;103323.16;5049743;28;20059;-63
2023/01/25 09:29:57;;;;;;;85.00;49.43;;;;;;;-1.48;100.00;103327.00;5048859;28;20067;-63
2023/01/25 09:32:22;;;;;;;83.50;47.80;;;;;;;-1.46;100.00;103330.59;5049314;28;20397;-64
2023/01/25 09:34:47;;;;;;;81.83;47.87;;;;;;;-1.46;100.00;103330.59;5049130;28;20021;-63
2023/01/25 09:37:13;;;;;;;87.23;49.30;;;;;;;-1.42;100.00;103325.91;5049281;28;20024;-64
2023/01/25 09:39:38;;;;;;;87.57;47.57;;;;;;;-1.41;100.00;103331.19;5049846;28;20025;-63
2023/01/25 09:42:19;;;;;;;93.30;50.47;;;;;;;-1.39;100.00;103328.81;5052880;28;20031;-63
2023/01/25 09:45:06;;;;;;;88.82;47.58;;;;;;;-1.38;100.00;103336.63;5055667;28;20071;-63
2023/01/25 09:47:59;;;;;;;88.23;48.83;;;;;;;-1.37;100.00;103328.25;5049378;28;20412;-63
2023/01/25 09:50:33;;;;;;;88.20;48.53;;;;;;;-1.37;100.00;103319.75;5049672;28;20656;-63
2023/01/25 09:53:11;;;;;;;81.10;45.77;;;;;;;-1.37;100.00;103324.84;5048118;28;20052;-63
2023/01/25 09:55:38;;;;;;;81.03;46.83;;;;;;;-1.35;100.00;103328.47;5048342;28;20334;-64
2023/01/25 09:58:09;;;;;;;88.20;49.90;;;;;;;-1.36;100.00;103321.56;5048565;28;20028;-64
2023/01/25 10:00:44;;;;;;;85.17;47.87;;;;;;;-1.38;100.00;103323.00;5048953;28;20028;-64
2023/01/25 10:03:37;;;;;;;80.17;48.63;;;;;;;-1.38;100.00;103335.72;5048438;28;20033;-64
2023/01/25 10:06:03;;;;;;;82.10;46.87;;;;;;;-1.40;100.00;103332.09;5048396;28;20428;-63
2023/01/25 10:08:37;;;;;;;84.17;47.37;;;;;;;-1.43;100.00;103329.16;5048021;28;20373;-64
2023/01/25 10:11:10;;;;;;;81.50;47.70;;;;;;;-1.46;100.00;103329.72;5048412;28;20037;-64
2023/01/25 10:13:36;;;;;;;79.17;47.00;;;;;;;-1.49;100.00;103320.06;5048561;28;20377;-63
2023/01/25 10:16:14;;;;;;;87.90;48.57;;;;;;;-1.52;100.00;103314.63;5047224;28;20039;-64
2023/01/25 10:19:16;;;;;;;83.40;45.90;;;;;;;-1.55;100.00;103311.72;5049315;28;20922;-63
2023/01/25 10:21:53;;;;;;;79.07;45.13;;;;;;;-1.58;100.00;103309.69;5048396;28;20346;-64
2023/01/25 10:25:10;;;;;;;76.60;44.53;;;;;;;-1.59;100.00;103312.06;5047815;28;20036;-63
2023/01/25 10:28:04;;;;;;;82.30;46.80;;;;;;;-1.63;100.00;103314.94;5048794;28;20123;-64
2023/01/25 10:30:35;;;;;;;82.23;46.17;;;;;;;-1.64;100.00;103308.03;5047475;28;20485;-63
2023/01/25 10:33:11;;;;;;;81.60;45.47;;;;;;;-1.62;100.00;103306.59;5047532;28;20032;-63
2023/01/25 10:35:41;;;;;;;81.67;47.17;;;;;;;-1.59;100.00;103296.78;5048260;28;20418;-64
2023/01/25 10:38:16;;;;;;;82.10;46.97;;;;;;;-1.60;100.00;103295.88;5047154;28;20036;-63
2023/01/25 10:40:48;;;;;;;80.10;45.37;;;;;;;-1.58;100.00;103293.50;5047773;28;20051;-64
2023/01/25 10:43:19;;;;;;;83.33;46.87;;;;;;;-1.54;100.00;103288.09;5047997;28;20607;-63
2023/01/25 10:45:45;;;;;;;82.40;48.80;;;;;;;-1.53;100.00;103272.09;5048967;28;20469;-63
2023/01/25 10:48:19;;;;;;;79.80;45.10;;;;;;;-1.56;100.00;103266.63;5047829;28;20040;-63
2023/01/25 10:50:51;;;;;;;78.93;46.80;;;;;;;-1.55;100.00;103255.75;5047513;28;20041;-63
2023/01/25 10:53:29;;;;;;;81.37;47.10;;;;;;;-1.55;100.00;103253.22;5047860;28;20025;-63
2023/01/25 10:55:59;;;;;;;79.40;45.10;;;;;;;-1.51;100.00;103245.19;5048706;28;20020;-63
2023/01/25 10:58:34;;;;;;;79.93;46.10;;;;;;;-1.50;100.00;103247.03;5047188;28;20033;-63
2023/01/25 11:01:00;;;;;;;78.37;44.07;;;;;;;-1.53;100.00;103244.09;5047100;28;20368;-63
2023/01/25 11:03:37;;;;;;;81.63;46.13;;;;;;;-1.57;100.00;103240.31;5047941;28;20359;-63
2023/01/25 11:06:02;;;;;;;80.60;47.83;;;;;;;-1.61;100.00;103233.03;5047474;28;20021;-63
2023/01/25 11:08:33;;;;;;;81.13;46.17;;;;;;;-1.61;100.00;103227.03;5047079;28;20040;-63